createdAt,value
2018-04-23T00:00:15.285Z,18.17
2018-04-23T00:02:45.133Z,13.13
2018-04-23T00:05:14.616Z,16.13
2018-04-23T00:07:44.078Z,14.73
2018-04-23T00:10:13.534Z,13.60
2018-04-23T00:12:43.007Z,20.77
2018-04-23T00:15:13.382Z,18.70
2018-04-23T00:17:42.849Z,22.00
2018-04-23T00:20:12.697Z,20.47
2018-04-23T00:22:42.153Z,17.10
2018-04-23T00:25:11.326Z,15.93
2018-04-23T00:27:40.821Z,21.43
2018-04-23T00:30:10.264Z,19.17
2018-04-23T00:32:39.770Z,18.30
2018-04-23T00:35:09.692Z,22.50
2018-04-23T00:37:39.164Z,17.60
2018-04-23T00:40:08.317Z,18.80
2018-04-23T00:42:37.808Z,12.73
2018-04-23T00:45:07.246Z,18.70
2018-04-23T00:47:36.731Z,20.93
2018-04-23T00:50:06.181Z,22.50
2018-04-23T00:52:35.633Z,24.10
2018-04-23T00:55:05.502Z,20.90
2018-04-23T00:57:34.997Z,22.57
2018-04-23T01:00:03.774Z,20.40
2018-04-23T01:02:32.641Z,28.73
2018-04-23T01:05:02.105Z,26.40
2018-04-23T01:07:31.585Z,30.23
2018-04-23T01:10:01.035Z,27.80
2018-04-23T01:12:30.494Z,29.93
2018-04-23T01:14:59.958Z,32.03
2018-04-23T01:17:29.437Z,42.00
2018-04-23T01:19:58.887Z,23.63
2018-04-23T01:22:28.357Z,28.13
2018-04-23T01:24:58.221Z,26.03
2018-04-23T01:27:27.720Z,27.70
2018-04-23T01:29:57.183Z,29.33
2018-04-23T01:32:26.671Z,31.73
2018-04-23T01:34:56.168Z,35.57
2018-04-23T01:37:26.011Z,22.20
2018-04-23T01:39:55.470Z,31.23
2018-04-23T01:42:24.949Z,27.90
2018-04-23T01:44:54.405Z,32.07
2018-04-23T01:47:23.865Z,23.37
2018-04-23T01:49:53.746Z,21.83
2018-04-23T01:52:23.220Z,28.33
2018-04-23T01:54:53.084Z,29.20
2018-04-23T01:57:22.597Z,23.43
2018-04-23T01:59:52.218Z,30.17
2018-04-23T02:02:21.713Z,22.50
2018-04-23T02:04:51.398Z,27.37
2018-04-23T02:07:20.877Z,23.37
2018-04-23T02:09:50.326Z,28.00
2018-04-23T02:12:19.777Z,25.50
2018-04-23T02:14:49.265Z,25.10
2018-04-23T02:17:18.721Z,25.90
2018-04-23T02:19:48.173Z,32.70
2018-04-23T02:22:17.659Z,23.13
2018-04-23T02:24:48.052Z,35.53
2018-04-23T02:27:17.547Z,24.53
2018-04-23T02:29:47.392Z,18.40
2018-04-23T02:32:16.889Z,30.83
2018-04-23T02:34:46.358Z,32.10
2018-04-23T02:37:15.558Z,31.83
2018-04-23T02:39:45.034Z,34.33
2018-04-23T02:42:14.501Z,30.70
2018-04-23T02:44:43.989Z,32.60
2018-04-23T02:47:13.850Z,36.13
2018-04-23T02:49:43.301Z,38.77
2018-04-23T02:52:12.765Z,40.50
2018-04-23T02:54:42.641Z,30.50
2018-04-23T02:57:12.126Z,39.93
2018-04-23T02:59:41.608Z,38.87
2018-04-23T03:02:11.045Z,29.67
2018-04-23T03:04:40.912Z,36.93
2018-04-23T03:07:10.397Z,38.50
2018-04-23T03:09:40.298Z,38.23
2018-04-23T03:12:09.749Z,39.00
2018-04-23T03:14:38.959Z,35.23
2018-04-23T03:17:08.412Z,85.03
2018-04-23T03:19:37.900Z,27.47
2018-04-23T03:22:07.765Z,38.27
2018-04-23T03:24:37.234Z,45.97
2018-04-23T03:27:06.707Z,37.90
2018-04-23T03:29:36.210Z,34.50
2018-04-23T03:32:05.712Z,31.23
2018-04-23T03:34:35.593Z,43.33
2018-04-23T03:37:05.111Z,38.20
2018-04-23T03:39:35.123Z,30.87
2018-04-23T03:42:04.573Z,60.20
2018-04-23T03:44:34.062Z,29.33
2018-04-23T03:47:03.523Z,31.30
2018-04-23T03:49:33.011Z,24.07
2018-04-23T03:52:02.484Z,23.67
2018-04-23T03:54:31.924Z,17.23
2018-04-23T03:57:01.381Z,28.13
2018-04-23T03:59:30.854Z,36.27
2018-04-23T04:02:00.037Z,17.67
2018-04-23T04:04:29.497Z,26.40
2018-04-23T04:06:58.972Z,22.57
2018-04-23T04:09:28.657Z,20.13
2018-04-23T04:11:57.490Z,23.87
2018-04-23T04:14:37.926Z,17.67
2018-04-23T04:17:06.910Z,20.10
2018-04-23T04:19:36.114Z,19.50
2018-04-23T04:22:05.594Z,22.00
2018-04-23T04:24:35.045Z,17.83
2018-04-23T04:27:04.521Z,21.13
2018-04-23T04:29:33.978Z,21.50
2018-04-23T04:32:03.563Z,18.23
2018-04-23T04:34:33.049Z,23.43
2018-04-23T04:37:02.579Z,23.53
2018-04-23T04:39:33.647Z,17.93
2018-04-23T04:42:03.137Z,23.00
2018-04-23T04:44:32.588Z,17.53
2018-04-23T04:47:02.064Z,16.93
2018-04-23T04:49:31.319Z,16.37
2018-04-23T04:52:02.081Z,17.43
2018-04-23T04:54:31.576Z,19.70
2018-04-23T04:57:01.468Z,23.23
2018-04-23T04:59:30.962Z,19.53
2018-04-23T05:02:00.431Z,14.93
2018-04-23T05:04:29.881Z,13.63
2018-04-23T05:06:59.377Z,16.53
2018-04-23T05:09:28.865Z,20.97
2018-04-23T05:11:58.319Z,18.60
2018-04-23T05:14:27.790Z,20.13
2018-04-23T05:16:57.264Z,15.03
2018-04-23T05:19:26.484Z,18.57
2018-04-23T05:21:56.345Z,12.47
2018-04-23T05:24:25.829Z,11.97
2018-04-23T05:26:55.267Z,15.20
2018-04-23T05:29:24.828Z,22.20
2018-04-23T05:31:55.208Z,17.60
2018-04-23T05:34:25.086Z,19.37
2018-04-23T05:36:54.542Z,16.47
2018-04-23T05:39:24.028Z,15.50
2018-04-23T05:41:53.511Z,13.47
2018-04-23T05:44:23.360Z,14.70
2018-04-23T05:46:52.798Z,9.47
2018-04-23T05:49:22.319Z,15.03
2018-04-23T05:51:51.762Z,22.50
2018-04-23T05:54:21.233Z,16.27
2018-04-23T05:56:50.690Z,13.10
2018-04-23T05:59:20.141Z,19.93
2018-04-23T06:01:49.855Z,14.33
2018-04-23T06:04:19.319Z,17.53
2018-04-23T06:06:49.384Z,18.33
2018-04-23T06:09:18.936Z,10.07
2018-04-23T06:11:48.373Z,16.73
2018-04-23T06:14:18.288Z,14.73
2018-04-23T06:16:47.936Z,12.73
2018-04-23T06:19:17.777Z,19.73
2018-04-23T06:21:47.255Z,13.37
2018-04-23T06:24:16.831Z,11.73
2018-04-23T06:26:46.282Z,16.17
2018-04-23T06:29:15.747Z,14.00
2018-04-23T06:31:45.610Z,16.30
2018-04-23T06:34:15.416Z,11.63
2018-04-23T06:36:45.040Z,14.53
2018-04-23T06:39:14.473Z,16.27
2018-04-23T06:41:43.919Z,10.73
2018-04-23T06:44:13.522Z,16.17
2018-04-23T06:46:43.003Z,16.33
2018-04-23T06:49:12.469Z,13.43
2018-04-23T06:51:41.957Z,21.20
2018-04-23T06:54:11.508Z,11.37
2018-04-23T06:56:40.741Z,17.33
2018-04-23T06:59:09.997Z,11.83
2018-04-23T07:01:39.832Z,13.13
2018-04-23T07:04:09.682Z,18.03
2018-04-23T07:06:39.122Z,16.37
2018-04-23T07:09:08.618Z,26.53
2018-04-23T07:11:38.122Z,11.00
2018-04-23T07:14:07.980Z,21.87
2018-04-23T07:16:37.561Z,15.60
2018-04-23T07:19:07.154Z,21.50
2018-04-23T07:21:36.610Z,14.97
2018-04-23T07:24:06.489Z,18.73
2018-04-23T07:26:35.940Z,28.23
2018-04-23T07:29:06.349Z,18.70
2018-04-23T07:31:35.817Z,19.03
2018-04-23T07:34:05.676Z,14.70
2018-04-23T07:36:35.124Z,23.50
2018-04-23T07:39:03.705Z,19.23
2018-04-23T07:41:33.153Z,18.13
2018-04-23T07:44:02.606Z,14.80
2018-04-23T07:46:32.464Z,19.03
2018-04-23T07:49:01.905Z,20.43
2018-04-23T07:51:31.389Z,19.00
2018-04-23T07:54:01.047Z,23.17
2018-04-23T07:56:30.532Z,15.93
2018-04-23T07:59:00.377Z,19.40
2018-04-23T08:01:29.866Z,22.47
2018-04-23T08:03:59.045Z,25.07
2018-04-23T08:06:28.529Z,19.77
2018-04-23T08:08:59.266Z,18.60
2018-04-23T08:11:28.745Z,21.43
2018-04-23T08:13:58.260Z,22.87
2018-04-23T08:16:27.699Z,22.10
2018-04-23T08:18:57.163Z,22.37
2018-04-23T08:21:26.641Z,25.47
2018-04-23T08:23:55.806Z,19.87
2018-04-23T08:26:25.282Z,18.93
2018-04-23T08:28:55.021Z,21.47
2018-04-23T08:31:24.881Z,26.90
2018-04-23T08:33:55.353Z,23.30
2018-04-23T08:36:24.833Z,20.03
2018-04-23T08:38:54.298Z,25.70
2018-04-23T08:41:23.749Z,16.50
2018-04-23T08:43:53.679Z,20.63
2018-04-23T08:46:23.301Z,23.00
2018-04-23T08:48:53.197Z,13.60
2018-04-23T08:51:22.827Z,20.63
2018-04-23T08:53:52.297Z,21.00
2018-04-23T08:56:21.774Z,23.80
2018-04-23T08:58:51.242Z,22.03
2018-04-23T09:01:20.721Z,20.63
2018-04-23T09:03:50.174Z,21.60
2018-04-23T09:06:19.641Z,20.97
2018-04-23T09:08:49.125Z,16.50
2018-04-23T09:11:18.611Z,24.87
2018-04-23T09:13:48.070Z,26.87
2018-04-23T09:16:17.532Z,21.90
2018-04-23T09:18:46.364Z,19.27
2018-04-23T09:21:16.210Z,23.80
2018-04-23T09:23:45.688Z,29.77
2018-04-23T09:26:15.138Z,19.93
2018-04-23T09:28:44.988Z,20.10
2018-04-23T09:31:14.463Z,24.47
2018-04-23T09:33:43.941Z,25.73
2018-04-23T09:36:13.400Z,20.33
2018-04-23T09:38:42.841Z,23.20
2018-04-23T09:41:12.696Z,23.10
2018-04-23T09:43:42.146Z,20.63
2018-04-23T09:46:11.608Z,24.27
2018-04-23T09:48:41.468Z,23.03
2018-04-23T09:51:10.975Z,25.47
2018-04-23T09:53:40.849Z,25.40
2018-04-23T09:56:10.365Z,23.00
2018-04-23T09:58:39.598Z,23.40
2018-04-23T10:01:14.745Z,24.00
2018-04-23T10:03:43.977Z,20.13
2018-04-23T10:06:14.346Z,22.43
2018-04-23T10:08:43.830Z,21.17
2018-04-23T10:11:13.312Z,24.43
2018-04-23T10:13:42.765Z,19.40
2018-04-23T10:16:12.250Z,22.20
2018-04-23T10:18:41.442Z,26.47
2018-04-23T10:21:10.927Z,21.23
2018-04-23T10:23:40.151Z,18.70
2018-04-23T10:26:09.285Z,18.60
2018-04-23T10:28:39.136Z,22.80
2018-04-23T10:31:08.381Z,19.77
2018-04-23T10:33:37.868Z,19.40
2018-04-23T10:36:07.326Z,20.73
2018-04-23T10:38:36.815Z,20.57
2018-04-23T10:41:06.257Z,21.60
2018-04-23T10:43:35.753Z,16.17
2018-04-23T10:46:05.209Z,15.50
2018-04-23T10:48:34.661Z,20.60
2018-04-23T10:51:04.184Z,18.87
2018-04-23T10:53:34.299Z,14.87
2018-04-23T10:56:05.722Z,18.07
2018-04-23T10:58:35.200Z,17.93
2018-04-23T11:01:05.088Z,17.70
2018-04-23T11:03:34.547Z,18.03
2018-04-23T11:06:03.729Z,15.70
2018-04-23T11:08:33.252Z,14.97
2018-04-23T11:11:02.717Z,10.70
2018-04-23T11:13:32.606Z,18.07
2018-04-23T11:16:02.076Z,12.80
2018-04-23T11:18:31.564Z,13.10
2018-04-23T11:21:01.236Z,12.60
2018-04-23T11:23:30.704Z,13.83
2018-04-23T11:26:00.117Z,9.07
2018-04-23T11:28:29.588Z,11.20
2018-04-23T11:30:59.049Z,11.30
2018-04-23T11:33:28.509Z,13.33
2018-04-23T11:35:58.365Z,10.90
2018-04-23T11:38:27.822Z,16.90
2018-04-23T11:40:57.260Z,21.63
2018-04-23T11:43:26.699Z,10.20
2018-04-23T11:45:56.549Z,11.43
2018-04-23T11:48:26.030Z,12.40
2018-04-23T11:50:55.522Z,16.50
2018-04-23T11:53:25.166Z,20.87
2018-04-23T11:55:54.623Z,13.50
2018-04-23T11:58:24.084Z,11.73
2018-04-23T12:00:53.268Z,10.40
2018-04-23T12:03:22.765Z,17.80
2018-04-23T12:05:52.617Z,10.67
2018-04-23T12:08:22.080Z,11.80
2018-04-23T12:10:51.390Z,13.40
2018-04-23T12:13:21.410Z,11.17
2018-04-23T12:15:50.854Z,13.73
2018-04-23T12:18:20.300Z,11.97
2018-04-23T12:20:50.153Z,11.00
2018-04-23T12:23:19.582Z,8.67
2018-04-23T12:25:49.109Z,14.53
2018-04-23T12:28:18.558Z,12.10
2018-04-23T12:30:48.031Z,10.33
2018-04-23T12:33:17.479Z,9.80
2018-04-23T12:35:46.959Z,7.73
2018-04-23T12:38:16.827Z,8.70
2018-04-23T12:40:46.301Z,8.73
2018-04-23T12:43:15.774Z,10.30
2018-04-23T12:45:45.265Z,6.00
2018-04-23T12:48:14.725Z,7.93
2018-04-23T12:50:44.178Z,7.07
2018-04-23T12:53:13.622Z,14.00
2018-04-23T12:55:43.095Z,8.13
2018-04-23T12:58:12.537Z,6.77
2018-04-23T13:00:42.382Z,11.37
2018-04-23T13:03:12.226Z,7.37
2018-04-23T13:05:41.699Z,9.70
2018-04-23T13:08:11.163Z,9.70
2018-04-23T13:10:41.345Z,7.60
2018-04-23T13:13:10.785Z,11.10
2018-04-23T13:15:40.274Z,11.33
2018-04-23T13:18:09.707Z,11.63
2018-04-23T13:20:39.201Z,12.30
2018-04-23T13:23:08.414Z,10.57
2018-04-23T13:25:38.881Z,7.07
2018-04-23T13:28:08.324Z,8.37
2018-04-23T13:30:37.777Z,8.93
2018-04-23T13:33:07.262Z,7.20
2018-04-23T13:35:36.718Z,8.43
2018-04-23T13:38:06.153Z,10.40
2018-04-23T13:40:35.613Z,8.17
2018-04-23T13:43:05.065Z,9.63
2018-04-23T13:45:34.933Z,8.20
2018-04-23T13:48:04.385Z,8.47
2018-04-23T13:50:33.842Z,7.80
2018-04-23T13:53:03.309Z,8.70
2018-04-23T13:55:32.512Z,8.93
2018-04-23T13:58:02.177Z,6.30
2018-04-23T14:00:32.049Z,11.23
2018-04-23T14:03:01.531Z,6.70
2018-04-23T14:05:31.398Z,4.87
2018-04-23T14:08:00.854Z,4.87
2018-04-23T14:10:30.332Z,5.57
2018-04-23T14:12:59.797Z,6.67
2018-04-23T14:15:29.255Z,5.93
2018-04-23T14:17:58.697Z,6.13
2018-04-23T14:20:28.155Z,7.00
2018-04-23T14:22:58.565Z,8.13
2018-04-23T14:25:28.037Z,8.17
2018-04-23T14:27:57.659Z,6.40
2018-04-23T14:30:27.126Z,9.93
2018-04-23T14:32:57.296Z,4.20
2018-04-23T14:35:26.522Z,7.40
2018-04-23T14:37:56.000Z,6.13
2018-04-23T14:40:25.458Z,4.80
2018-04-23T14:42:55.044Z,7.80
2018-04-23T14:45:24.529Z,4.60
2018-04-23T14:47:54.177Z,4.93
2018-04-23T14:50:23.623Z,12.27
2018-04-23T14:52:53.088Z,5.20
2018-04-23T14:55:22.253Z,7.63
2018-04-23T14:57:51.765Z,5.90
2018-04-23T15:00:21.313Z,7.13
2018-04-23T15:02:50.790Z,4.60
2018-04-23T15:05:20.254Z,6.70
2018-04-23T15:07:49.768Z,7.10
2018-04-23T15:10:20.032Z,6.40
2018-04-23T15:12:49.514Z,9.77
2018-04-23T15:15:18.966Z,16.23
2018-04-23T15:17:48.495Z,11.67
2018-04-23T15:20:20.683Z,11.17
2018-04-23T15:22:50.178Z,8.50
2018-04-23T15:25:19.647Z,8.37
2018-04-23T15:27:49.486Z,13.90
2018-04-23T15:30:18.961Z,9.50
2018-04-23T15:32:48.405Z,6.33
2018-04-23T15:35:18.286Z,10.23
2018-04-23T15:37:47.772Z,6.33
2018-04-23T15:40:17.214Z,7.83
2018-04-23T15:42:46.645Z,8.10
2018-04-23T15:45:15.862Z,9.73
2018-04-23T15:47:45.324Z,13.00
2018-04-23T15:50:15.189Z,11.93
2018-04-23T15:52:44.362Z,14.63
2018-04-23T15:55:14.245Z,8.83
2018-04-23T15:57:43.719Z,9.43
2018-04-23T16:00:13.175Z,13.30
2018-04-23T16:02:42.643Z,10.97
2018-04-23T16:05:12.089Z,10.40
2018-04-23T16:07:41.537Z,10.80
2018-04-23T16:10:11.002Z,20.00
2018-04-23T16:12:40.484Z,7.60
2018-04-23T16:15:09.943Z,7.37
2018-04-23T16:17:39.400Z,7.37
2018-04-23T16:20:08.846Z,6.10
2018-04-23T16:22:38.302Z,10.10
2018-04-23T16:25:07.759Z,9.07
2018-04-23T16:27:36.962Z,7.93
2018-04-23T16:30:06.468Z,5.33
2018-04-23T16:32:36.080Z,6.60
2018-04-23T16:35:05.676Z,8.73
2018-04-23T16:37:35.488Z,7.70
2018-04-23T16:40:05.373Z,7.70
2018-04-23T16:42:35.257Z,11.93
2018-04-23T16:45:04.113Z,8.93
2018-04-23T16:47:33.993Z,5.80
2018-04-23T16:50:04.521Z,7.20
2018-04-23T16:52:34.609Z,12.70
2018-04-23T16:55:04.471Z,6.47
2018-04-23T16:57:34.406Z,6.30
2018-04-23T17:00:03.529Z,6.40
2018-04-23T17:02:33.182Z,6.60
2018-04-23T17:05:02.789Z,8.87
2018-04-23T17:07:32.439Z,9.00
2018-04-23T17:10:01.902Z,7.87
2018-04-23T17:12:31.555Z,10.80
2018-04-23T17:15:01.005Z,8.57
2018-04-23T17:17:30.460Z,7.33
2018-04-23T17:20:00.325Z,9.77
2018-04-23T17:22:29.796Z,8.57
2018-04-23T17:24:59.439Z,41.23
2018-04-23T17:27:29.630Z,9.10
2018-04-23T17:29:59.062Z,8.03
2018-04-23T17:32:28.602Z,9.27
2018-04-23T17:34:59.416Z,11.80
2018-04-23T17:37:31.068Z,7.07
2018-04-23T17:40:00.231Z,12.83
2018-04-23T17:42:29.835Z,14.30
2018-04-23T17:44:59.438Z,8.70
2018-04-23T17:47:29.054Z,8.13
2018-04-23T17:49:58.219Z,8.83
2018-04-23T17:52:28.054Z,9.90
2018-04-23T17:54:57.248Z,9.00
2018-04-23T17:57:26.422Z,8.10
2018-04-23T17:59:56.594Z,9.77
2018-04-23T18:02:26.253Z,8.10
2018-04-23T18:04:55.424Z,10.13
2018-04-23T18:07:25.027Z,7.50
2018-04-23T18:09:54.501Z,7.43
2018-04-23T18:12:26.296Z,7.50
2018-04-23T18:14:55.439Z,6.63
2018-04-23T18:17:24.622Z,9.80
2018-04-23T18:19:53.811Z,10.13
2018-04-23T18:22:23.651Z,9.47
2018-04-23T18:24:52.861Z,8.27
2018-04-23T18:27:23.040Z,12.47
2018-04-23T18:29:52.801Z,7.27
2018-04-23T18:32:22.173Z,10.07
